createdAt,value
2023-10-29T00:00:59.435Z,94.28
2023-10-29T00:03:27.262Z,94.08
2023-10-29T00:05:54.998Z,94.14
2023-10-29T00:08:24.060Z,94.11
2023-10-29T00:10:51.685Z,94.12
2023-10-29T00:13:19.301Z,94.05
2023-10-29T00:15:46.864Z,94.15
2023-10-29T00:18:14.512Z,94.14
2023-10-29T00:20:42.203Z,93.54
2023-10-29T00:23:09.800Z,93.90
2023-10-29T00:25:38.796Z,93.62
2023-10-29T00:28:06.388Z,93.44
2023-10-29T00:30:34.354Z,93.25
2023-10-29T00:33:02.176Z,93.37
2023-10-29T00:35:29.833Z,93.56
2023-10-29T00:37:57.384Z,92.86
2023-10-29T00:40:24.924Z,92.99
2023-10-29T00:42:53.863Z,93.16
2023-10-29T00:45:21.465Z,93.00
2023-10-29T00:47:49.117Z,93.42
2023-10-29T00:50:16.777Z,92.95
2023-10-29T00:52:44.427Z,92.86
2023-10-29T00:55:12.141Z,93.22
2023-10-29T00:57:39.938Z,93.68
2023-10-29T01:00:11.494Z,92.64
2023-10-29T01:02:39.678Z,93.47
2023-10-29T01:05:08.242Z,93.30
2023-10-29T01:07:35.897Z,93.44
2023-10-29T01:10:04.419Z,93.44
2023-10-29T01:12:32.013Z,93.38
2023-10-29T01:14:59.733Z,93.48
2023-10-29T01:17:28.796Z,92.74
2023-10-29T01:19:56.403Z,92.21
2023-10-29T01:22:24.466Z,92.29
2023-10-29T01:24:52.058Z,92.68
2023-10-29T01:27:19.598Z,92.28
2023-10-29T01:29:47.214Z,91.62
2023-10-29T01:32:15.192Z,91.79
2023-10-29T01:34:44.259Z,92.07
2023-10-29T01:37:11.849Z,92.09
2023-10-29T01:39:39.494Z,92.18
2023-10-29T01:42:07.553Z,92.25
2023-10-29T01:44:35.127Z,92.97
2023-10-29T01:47:02.978Z,93.33
2023-10-29T01:49:30.822Z,93.80
2023-10-29T01:51:59.731Z,93.97
2023-10-29T01:54:27.361Z,93.80
2023-10-29T01:56:54.962Z,94.12
2023-10-29T01:59:22.629Z,94.25
2023-10-29T02:01:51.322Z,94.01
2023-10-29T02:04:19.114Z,94.14
2023-10-29T02:06:47.193Z,93.77
2023-10-29T02:09:16.133Z,94.17
2023-10-29T02:11:44.126Z,94.17
2023-10-29T02:14:11.700Z,93.50
2023-10-29T02:16:39.274Z,93.78
2023-10-29T02:19:07.164Z,93.33
2023-10-29T02:21:36.067Z,93.96
2023-10-29T02:24:05.241Z,94.45
2023-10-29T02:26:32.771Z,93.71
2023-10-29T02:29:00.400Z,94.27
2023-10-29T02:31:27.983Z,95.00
2023-10-29T02:33:55.484Z,94.49
2023-10-29T02:36:23.023Z,93.86
2023-10-29T02:38:50.578Z,93.89
2023-10-29T02:41:19.482Z,93.81
2023-10-29T02:43:47.025Z,93.36
2023-10-29T02:46:14.714Z,94.07
2023-10-29T02:48:42.735Z,93.49
2023-10-29T02:51:12.484Z,93.09
2023-10-29T02:53:40.413Z,93.48
2023-10-29T02:56:08.307Z,93.98
2023-10-29T02:58:37.573Z,93.62
2023-10-29T03:01:06.794Z,93.15
2023-10-29T03:03:34.550Z,92.81
2023-10-29T03:06:05.949Z,92.70
2023-10-29T03:08:33.516Z,92.87
2023-10-29T03:11:01.401Z,92.65
2023-10-29T03:13:29.019Z,92.43
2023-10-29T03:15:58.243Z,92.82
2023-10-29T03:18:26.036Z,92.80
2023-10-29T03:20:53.762Z,92.56
2023-10-29T03:23:21.287Z,92.33
2023-10-29T03:25:48.803Z,92.39
2023-10-29T03:28:16.378Z,91.77
2023-10-29T03:30:44.165Z,91.57
2023-10-29T03:33:13.571Z,91.57
2023-10-29T03:35:41.288Z,91.67
2023-10-29T03:38:09.002Z,91.46
2023-10-29T03:40:37.978Z,91.76
2023-10-29T03:43:05.480Z,91.01
2023-10-29T03:45:32.989Z,91.10
2023-10-29T03:48:00.607Z,90.48
2023-10-29T03:50:29.559Z,90.64
2023-10-29T03:52:57.111Z,89.57
2023-10-29T03:55:25.066Z,89.30
2023-10-29T03:57:52.656Z,89.62
2023-10-29T04:00:20.279Z,89.29
2023-10-29T04:02:49.686Z,89.18
2023-10-29T04:05:17.646Z,89.37
2023-10-29T04:07:46.519Z,89.34
2023-10-29T04:10:14.110Z,89.15
2023-10-29T04:12:41.999Z,89.63
2023-10-29T04:15:10.357Z,89.21
2023-10-29T04:17:37.966Z,89.85
2023-10-29T04:20:06.964Z,88.95
2023-10-29T04:22:35.042Z,88.71
2023-10-29T04:25:04.077Z,88.59
2023-10-29T04:27:31.561Z,88.91
2023-10-29T04:29:59.403Z,89.52
2023-10-29T04:32:27.091Z,88.70
2023-10-29T04:34:54.679Z,88.60
2023-10-29T04:37:23.751Z,89.32
2023-10-29T04:39:51.372Z,89.41
2023-10-29T04:42:20.264Z,88.98
2023-10-29T04:44:48.052Z,89.29
2023-10-29T04:47:16.887Z,88.50
2023-10-29T04:49:45.857Z,89.15
2023-10-29T04:52:13.413Z,89.09
2023-10-29T04:54:41.237Z,88.48
2023-10-29T04:57:08.900Z,88.28
2023-10-29T04:59:38.284Z,89.04
2023-10-29T05:02:05.966Z,89.67
2023-10-29T05:04:33.718Z,88.68
2023-10-29T05:07:01.255Z,88.38
2023-10-29T05:09:28.724Z,88.09
2023-10-29T05:11:56.325Z,88.78
2023-10-29T05:14:24.285Z,89.15
2023-10-29T05:16:53.509Z,87.20
2023-10-29T05:19:21.378Z,87.85
2023-10-29T05:21:49.783Z,87.91
2023-10-29T05:24:17.460Z,89.02
2023-10-29T05:26:45.091Z,88.94
2023-10-29T05:29:12.629Z,87.80
2023-10-29T05:31:40.333Z,88.00
2023-10-29T05:34:09.375Z,88.30
2023-10-29T05:36:37.109Z,88.70
2023-10-29T05:39:06.192Z,88.54
2023-10-29T05:41:33.802Z,89.00
2023-10-29T05:44:01.337Z,88.83
2023-10-29T05:46:28.928Z,89.07
2023-10-29T05:48:56.970Z,89.25
2023-10-29T05:51:25.862Z,89.53
2023-10-29T05:53:53.447Z,89.62
2023-10-29T05:56:20.999Z,91.25
2023-10-29T05:58:49.596Z,90.44
2023-10-29T06:01:17.116Z,91.55
2023-10-29T06:03:44.962Z,92.33
2023-10-29T06:06:12.695Z,92.18
2023-10-29T06:08:41.551Z,92.75
2023-10-29T06:11:09.039Z,93.79
2023-10-29T06:13:36.553Z,94.23
2023-10-29T06:16:08.638Z,93.63
2023-10-29T06:18:36.554Z,93.44
2023-10-29T06:21:04.529Z,92.50
2023-10-29T06:23:32.203Z,92.60
2023-10-29T06:26:01.112Z,92.19
2023-10-29T06:28:28.650Z,92.90
2023-10-29T06:30:56.184Z,93.01
2023-10-29T06:33:23.789Z,92.60
2023-10-29T06:35:51.327Z,92.48
2023-10-29T06:38:18.827Z,92.19
2023-10-29T06:40:46.328Z,92.76
2023-10-29T06:43:15.193Z,92.21
2023-10-29T06:45:42.825Z,92.36
2023-10-29T06:48:10.381Z,92.33
2023-10-29T06:50:38.181Z,92.40
2023-10-29T06:53:06.789Z,91.85
2023-10-29T06:55:34.337Z,91.20
2023-10-29T06:58:01.855Z,91.59
2023-10-29T07:00:31.657Z,91.28
2023-10-29T07:03:00.263Z,91.12
2023-10-29T07:05:27.898Z,91.49
2023-10-29T07:07:55.487Z,91.12
2023-10-29T07:10:23.105Z,90.87
2023-10-29T07:12:50.664Z,90.81
2023-10-29T07:15:18.421Z,90.62
2023-10-29T07:17:47.340Z,90.67
2023-10-29T07:20:14.943Z,90.32
2023-10-29T07:22:43.539Z,90.95
2023-10-29T07:25:11.093Z,91.11
2023-10-29T07:27:38.661Z,90.93
2023-10-29T07:30:07.642Z,91.59
2023-10-29T07:32:36.133Z,90.78
2023-10-29T07:35:05.717Z,91.19
2023-10-29T07:37:33.208Z,92.13
2023-10-29T07:40:00.765Z,91.77
2023-10-29T07:42:28.305Z,92.25
2023-10-29T07:44:55.903Z,90.96
2023-10-29T07:47:23.445Z,91.27
2023-10-29T07:49:50.992Z,90.12
2023-10-29T07:52:19.884Z,90.32
2023-10-29T07:54:47.633Z,90.38
2023-10-29T07:57:15.258Z,90.10
2023-10-29T07:59:43.155Z,89.71
2023-10-29T08:02:10.732Z,89.05
2023-10-29T08:04:38.324Z,89.02
2023-10-29T08:07:06.272Z,89.73
2023-10-29T08:09:35.150Z,89.13
2023-10-29T08:12:02.747Z,89.15
2023-10-29T08:14:30.453Z,89.24
2023-10-29T08:16:57.977Z,89.30
2023-10-29T08:19:28.034Z,88.03
2023-10-29T08:21:55.538Z,88.93
2023-10-29T08:24:23.143Z,88.88
2023-10-29T08:26:52.060Z,88.52
2023-10-29T08:29:19.550Z,87.59
2023-10-29T08:31:47.084Z,87.61
2023-10-29T08:34:14.607Z,86.84
2023-10-29T08:36:42.162Z,86.74
2023-10-29T08:39:10.160Z,86.98
2023-10-29T08:41:37.819Z,86.78
2023-10-29T08:44:07.504Z,86.66
2023-10-29T08:46:35.089Z,87.30
2023-10-29T08:49:02.708Z,87.12
2023-10-29T08:51:30.301Z,86.04
2023-10-29T08:53:58.450Z,86.41
2023-10-29T08:56:26.113Z,86.83
2023-10-29T08:58:53.621Z,85.88
2023-10-29T09:01:22.594Z,85.74
2023-10-29T09:03:50.208Z,86.42
2023-10-29T09:06:17.918Z,86.52
2023-10-29T09:08:45.552Z,85.38
2023-10-29T09:11:16.292Z,85.97
2023-10-29T09:13:43.818Z,85.65
2023-10-29T09:16:11.409Z,85.58
2023-10-29T09:18:41.308Z,86.11
2023-10-29T09:21:08.966Z,86.71
2023-10-29T09:23:36.597Z,87.53
2023-10-29T09:26:04.433Z,88.43
2023-10-29T09:28:32.132Z,88.54
2023-10-29T09:30:59.638Z,89.22
2023-10-29T09:33:27.280Z,89.63
2023-10-29T09:35:56.295Z,90.81
2023-10-29T09:38:23.917Z,91.81
2023-10-29T09:40:54.332Z,92.58
2023-10-29T09:43:28.180Z,92.54
2023-10-29T09:45:57.273Z,93.04
2023-10-29T09:48:26.401Z,93.21
2023-10-29T09:50:55.040Z,93.74
2023-10-29T09:53:25.742Z,94.09
2023-10-29T09:55:55.791Z,93.97
2023-10-29T09:58:24.932Z,94.52
2023-10-29T10:00:52.759Z,94.00
2023-10-29T10:03:21.789Z,94.52
2023-10-29T10:05:49.526Z,93.55
2023-10-29T10:08:26.654Z,93.76
2023-10-29T10:10:54.769Z,93.70
2023-10-29T10:13:37.915Z,93.30
2023-10-29T10:16:10.283Z,93.72
2023-10-29T10:18:51.545Z,93.60
2023-10-29T10:21:21.212Z,93.80
2023-10-29T10:23:52.313Z,93.83
2023-10-29T10:26:31.428Z,93.66
2023-10-29T10:29:00.002Z,93.28
2023-10-29T10:31:28.798Z,92.32
2023-10-29T10:34:11.971Z,92.23
2023-10-29T10:36:39.736Z,91.63
2023-10-29T10:39:08.971Z,92.04
2023-10-29T10:41:44.374Z,91.11
2023-10-29T10:44:14.094Z,90.86
2023-10-29T10:46:48.668Z,91.24
2023-10-29T10:49:16.925Z,91.37
2023-10-29T10:51:45.769Z,90.22
2023-10-29T10:54:15.113Z,89.33
2023-10-29T10:56:43.443Z,90.06
2023-10-29T10:59:11.097Z,90.64
2023-10-29T11:01:40.264Z,90.27
2023-10-29T11:04:09.443Z,89.84
2023-10-29T11:06:39.210Z,90.07
2023-10-29T11:09:13.186Z,89.90
2023-10-29T11:11:47.802Z,91.34
2023-10-29T11:14:16.599Z,90.46
2023-10-29T11:16:49.223Z,90.81
2023-10-29T11:19:40.934Z,91.05
2023-10-29T11:22:19.225Z,90.50
2023-10-29T11:25:28.997Z,91.11
2023-10-29T11:27:57.956Z,90.33
2023-10-29T11:30:28.641Z,90.74
2023-10-29T11:33:19.729Z,90.62
2023-10-29T11:35:48.175Z,90.35
2023-10-29T11:38:34.423Z,90.69
2023-10-29T11:41:22.070Z,90.58
2023-10-29T11:44:22.281Z,90.65
2023-10-29T11:47:08.782Z,90.97
2023-10-29T11:50:14.252Z,91.04
2023-10-29T11:52:43.604Z,90.32
2023-10-29T11:55:13.296Z,90.84
2023-10-29T11:57:47.052Z,91.31
2023-10-29T12:00:16.836Z,90.81
2023-10-29T12:02:47.502Z,91.39
2023-10-29T12:05:17.407Z,91.12
2023-10-29T12:07:45.157Z,92.54
2023-10-29T12:10:12.692Z,91.81
2023-10-29T12:12:42.435Z,92.56
2023-10-29T12:15:17.679Z,92.88
2023-10-29T12:17:46.181Z,92.67
2023-10-29T12:20:22.483Z,93.40
2023-10-29T12:22:55.895Z,92.08
2023-10-29T12:25:23.776Z,91.92
2023-10-29T12:27:51.647Z,92.26
2023-10-29T12:30:44.404Z,92.10
2023-10-29T12:33:23.067Z,92.44
2023-10-29T12:35:51.948Z,91.75
2023-10-29T12:38:20.934Z,91.61
2023-10-29T12:41:09.322Z,91.05
2023-10-29T12:43:38.317Z,90.71
2023-10-29T12:46:09.009Z,91.29
2023-10-29T12:48:37.640Z,91.09
2023-10-29T12:51:05.594Z,91.36
2023-10-29T12:53:33.999Z,90.82
2023-10-29T12:56:03.087Z,91.56
2023-10-29T12:58:31.549Z,91.21
2023-10-29T13:01:00.854Z,91.96
2023-10-29T13:03:29.905Z,92.88
2023-10-29T13:05:57.666Z,93.34
2023-10-29T13:08:26.549Z,91.63
2023-10-29T13:10:54.484Z,91.65
2023-10-29T13:13:24.481Z,91.10
2023-10-29T13:15:52.719Z,91.29
2023-10-29T13:18:21.094Z,90.94
2023-10-29T13:20:50.446Z,90.94
2023-10-29T13:23:18.272Z,89.87
2023-10-29T13:25:46.164Z,91.66
2023-10-29T13:28:13.650Z,90.43
2023-10-29T13:30:41.398Z,90.21
2023-10-29T13:33:09.295Z,90.90
2023-10-29T13:35:40.258Z,89.59
2023-10-29T13:38:09.523Z,90.64
2023-10-29T13:40:38.756Z,89.50
2023-10-29T13:43:06.956Z,89.01
2023-10-29T13:45:34.993Z,89.10
2023-10-29T13:48:04.232Z,89.50
2023-10-29T13:50:31.959Z,88.96
2023-10-29T13:52:59.559Z,89.63
2023-10-29T13:55:29.707Z,89.13
2023-10-29T13:57:59.138Z,88.13
2023-10-29T14:00:27.637Z,88.45
2023-10-29T14:02:57.942Z,87.57
2023-10-29T14:05:26.223Z,88.35
2023-10-29T14:07:55.307Z,87.69
2023-10-29T14:10:23.557Z,87.66
2023-10-29T14:12:52.591Z,88.10
2023-10-29T14:15:20.432Z,88.48
2023-10-29T14:17:48.087Z,87.73
2023-10-29T14:20:15.640Z,86.26
2023-10-29T14:22:43.186Z,86.33
2023-10-29T14:25:11.651Z,86.42
2023-10-29T14:27:39.183Z,87.41
2023-10-29T14:30:10.303Z,87.25
2023-10-29T14:32:37.873Z,86.07
2023-10-29T14:35:06.533Z,85.57
2023-10-29T14:37:34.343Z,85.82
2023-10-29T14:40:01.924Z,85.01
2023-10-29T14:42:29.995Z,86.13
2023-10-29T14:44:57.560Z,86.75
2023-10-29T14:47:26.507Z,86.11
2023-10-29T14:49:54.060Z,86.19
2023-10-29T14:52:21.548Z,86.45
2023-10-29T14:54:49.755Z,86.70
2023-10-29T14:57:28.911Z,85.52
2023-10-29T14:59:57.543Z,85.65
2023-10-29T15:02:26.667Z,86.33
2023-10-29T15:04:55.199Z,85.44
2023-10-29T15:07:22.769Z,86.35
2023-10-29T15:09:50.388Z,86.52
2023-10-29T15:12:18.399Z,87.00
2023-10-29T15:14:48.037Z,86.99
2023-10-29T15:17:17.884Z,86.40
2023-10-29T15:19:51.867Z,86.20
2023-10-29T15:22:19.435Z,85.53
2023-10-29T15:24:47.451Z,86.27
2023-10-29T15:27:15.134Z,86.20
2023-10-29T15:29:43.880Z,86.22
2023-10-29T15:32:11.535Z,86.45
2023-10-29T15:34:39.006Z,85.45
2023-10-29T15:37:07.831Z,86.15
2023-10-29T15:39:35.419Z,86.47
2023-10-29T15:42:02.981Z,85.62
2023-10-29T15:44:32.974Z,85.02
2023-10-29T15:47:00.509Z,86.08
2023-10-29T15:49:28.030Z,85.99
2023-10-29T15:51:55.540Z,86.24
2023-10-29T15:54:26.187Z,86.04
2023-10-29T15:56:53.803Z,86.39
2023-10-29T15:59:23.234Z,86.05
2023-10-29T16:01:50.817Z,86.60
2023-10-29T16:04:18.335Z,87.24
2023-10-29T16:06:45.964Z,87.54
2023-10-29T16:09:13.672Z,87.75
2023-10-29T16:11:44.112Z,87.23
2023-10-29T16:14:13.237Z,85.96
2023-10-29T16:16:40.723Z,86.21
2023-10-29T16:19:08.232Z,87.41
2023-10-29T16:21:35.749Z,86.71
2023-10-29T16:24:04.110Z,86.78
2023-10-29T16:26:31.644Z,87.47
2023-10-29T16:29:00.549Z,88.44
2023-10-29T16:31:28.057Z,87.66
2023-10-29T16:33:55.703Z,88.11
2023-10-29T16:36:23.308Z,88.83
2023-10-29T16:38:50.868Z,89.15
2023-10-29T16:41:18.485Z,89.75
2023-10-29T16:43:49.379Z,90.17
2023-10-29T16:46:19.715Z,90.76
2023-10-29T16:48:48.031Z,90.67
2023-10-29T16:51:15.589Z,91.16
2023-10-29T16:53:43.252Z,91.31
2023-10-29T16:56:12.526Z,91.72
2023-10-29T16:58:41.394Z,91.86
2023-10-29T17:01:12.052Z,92.11
2023-10-29T17:03:41.184Z,91.39
2023-10-29T17:06:09.524Z,91.86
2023-10-29T17:08:37.149Z,91.24
2023-10-29T17:11:05.105Z,91.53
2023-10-29T17:13:32.654Z,91.13
2023-10-29T17:16:00.948Z,90.15
2023-10-29T17:18:28.627Z,89.48
2023-10-29T17:21:00.004Z,89.41
2023-10-29T17:23:28.009Z,89.12
2023-10-29T17:25:56.325Z,89.09
2023-10-29T17:28:23.833Z,89.08
2023-10-29T17:30:51.356Z,89.02
2023-10-29T17:33:18.988Z,88.07
2023-10-29T17:35:46.612Z,87.10
2023-10-29T17:38:15.458Z,87.42
2023-10-29T17:40:43.472Z,88.14
2023-10-29T17:43:11.214Z,87.82
2023-10-29T17:45:39.186Z,88.06
2023-10-29T17:48:07.625Z,88.56
2023-10-29T17:50:35.271Z,88.38
2023-10-29T17:53:03.431Z,88.21
2023-10-29T17:55:32.426Z,87.84
2023-10-29T17:58:00.868Z,87.71
2023-10-29T18:00:29.576Z,87.82
2023-10-29T18:02:57.440Z,86.88
2023-10-29T18:05:25.156Z,87.59
2023-10-29T18:07:52.715Z,88.26
2023-10-29T18:10:20.327Z,87.81
2023-10-29T18:12:49.230Z,88.02
2023-10-29T18:15:16.789Z,88.60
2023-10-29T18:17:44.354Z,87.70
2023-10-29T18:20:12.846Z,87.88
2023-10-29T18:22:40.362Z,87.70
2023-10-29T18:25:08.856Z,88.00
2023-10-29T18:27:37.211Z,87.37
2023-10-29T18:30:07.820Z,88.38
2023-10-29T18:32:35.620Z,88.22
2023-10-29T18:35:03.245Z,87.79
2023-10-29T18:37:30.822Z,87.82
2023-10-29T18:39:58.366Z,87.52
2023-10-29T18:42:26.083Z,88.03
2023-10-29T18:44:53.952Z,88.29
2023-10-29T18:47:24.761Z,88.88
2023-10-29T18:49:53.023Z,88.41
2023-10-29T18:52:20.650Z,88.68
2023-10-29T18:54:48.371Z,88.69
2023-10-29T18:57:16.595Z,88.90
2023-10-29T18:59:44.156Z,89.20
2023-10-29T19:02:11.768Z,89.04
2023-10-29T19:04:40.694Z,88.98
2023-10-29T19:07:11.180Z,88.85
2023-10-29T19:09:38.802Z,89.07
2023-10-29T19:12:07.038Z,88.72
2023-10-29T19:14:36.171Z,89.00
2023-10-29T19:17:09.333Z,88.58
2023-10-29T19:19:37.811Z,88.45
2023-10-29T19:22:09.464Z,89.07
2023-10-29T19:24:39.265Z,89.39
2023-10-29T19:27:07.866Z,89.08
2023-10-29T19:29:35.518Z,89.17
2023-10-29T19:32:03.068Z,89.25
2023-10-29T19:34:30.612Z,89.45
2023-10-29T19:36:58.174Z,88.68
2023-10-29T19:39:27.326Z,88.94
2023-10-29T19:41:55.018Z,88.77
2023-10-29T19:44:24.554Z,88.13
2023-10-29T19:46:52.386Z,89.09
2023-10-29T19:49:20.218Z,89.14
2023-10-29T19:51:47.839Z,89.17
2023-10-29T19:54:15.996Z,89.09
2023-10-29T19:56:45.132Z,89.30
2023-10-29T19:59:12.807Z,89.87
2023-10-29T20:01:40.489Z,89.21
2023-10-29T20:04:08.425Z,89.61
2023-10-29T20:06:36.264Z,88.77
2023-10-29T20:09:04.290Z,89.52
2023-10-29T20:11:31.962Z,89.30
2023-10-29T20:14:03.114Z,89.66
2023-10-29T20:16:30.907Z,89.02
2023-10-29T20:18:58.759Z,89.10
2023-10-29T20:21:30.129Z,89.90
2023-10-29T20:23:57.826Z,89.80
2023-10-29T20:26:25.452Z,89.83
2023-10-29T20:28:53.210Z,89.61
2023-10-29T20:31:22.667Z,89.75
2023-10-29T20:33:51.098Z,88.69
2023-10-29T20:36:19.458Z,87.84
2023-10-29T20:38:47.158Z,88.07
2023-10-29T20:41:14.947Z,88.04
2023-10-29T20:43:42.685Z,88.35
2023-10-29T20:46:11.768Z,88.37
2023-10-29T20:48:40.850Z,88.77
2023-10-29T20:51:08.810Z,88.09
2023-10-29T20:53:36.819Z,87.49
2023-10-29T20:56:06.527Z,87.42
2023-10-29T20:58:35.294Z,87.97
2023-10-29T21:01:04.311Z,87.87
2023-10-29T21:03:32.195Z,87.64
2023-10-29T21:06:01.942Z,87.05
2023-10-29T21:08:29.753Z,87.08
2023-10-29T21:11:04.443Z,87.98
2023-10-29T21:13:32.325Z,88.02
2023-10-29T21:16:06.249Z,87.64
2023-10-29T21:18:34.649Z,88.50
2023-10-29T21:21:04.468Z,88.28
2023-10-29T21:23:32.165Z,88.30
2023-10-29T21:26:00.321Z,88.33
2023-10-29T21:28:28.012Z,87.98
2023-10-29T21:30:55.827Z,87.91
2023-10-29T21:33:23.427Z,88.29
2023-10-29T21:35:51.879Z,88.61
2023-10-29T21:38:20.987Z,88.19
2023-10-29T21:40:48.589Z,88.78
2023-10-29T21:43:16.105Z,87.94
2023-10-29T21:45:44.113Z,88.14
2023-10-29T21:48:12.062Z,88.91
2023-10-29T21:50:42.133Z,88.72
2023-10-29T21:53:10.215Z,89.17
2023-10-29T21:55:39.184Z,89.07
2023-10-29T21:58:09.750Z,89.20
2023-10-29T22:00:37.610Z,89.46
2023-10-29T22:03:05.926Z,89.59
2023-10-29T22:05:34.089Z,89.40
2023-10-29T22:08:01.905Z,89.81
2023-10-29T22:10:29.439Z,90.17
2023-10-29T22:12:58.312Z,89.26
2023-10-29T22:15:28.697Z,89.52
2023-10-29T22:17:56.767Z,90.13
2023-10-29T22:20:24.534Z,90.17
2023-10-29T22:22:52.089Z,89.76
2023-10-29T22:25:19.647Z,90.21
2023-10-29T22:27:47.191Z,89.89
2023-10-29T22:30:16.505Z,89.87
2023-10-29T22:32:44.116Z,90.59
2023-10-29T22:35:11.632Z,90.76
2023-10-29T22:37:39.184Z,90.95
2023-10-29T22:40:07.907Z,90.66
2023-10-29T22:42:35.494Z,90.82
2023-10-29T22:45:03.085Z,90.57
2023-10-29T22:47:32.158Z,91.07
2023-10-29T22:49:59.781Z,91.01
2023-10-29T22:52:27.292Z,91.09
2023-10-29T22:54:54.873Z,90.91
2023-10-29T22:57:22.414Z,91.09
2023-10-29T22:59:52.048Z,90.85
2023-10-29T23:02:19.849Z,90.88
2023-10-29T23:04:48.742Z,90.87
2023-10-29T23:07:16.265Z,91.33
2023-10-29T23:09:43.858Z,91.03
2023-10-29T23:12:11.413Z,91.18
2023-10-29T23:14:38.963Z,91.20
2023-10-29T23:17:06.587Z,91.34
2023-10-29T23:19:34.137Z,91.06
2023-10-29T23:22:03.009Z,91.49
2023-10-29T23:24:30.676Z,91.32
2023-10-29T23:26:58.272Z,90.99
2023-10-29T23:29:25.833Z,91.41
2023-10-29T23:31:53.442Z,91.48
2023-10-29T23:34:22.525Z,91.35
2023-10-29T23:36:50.093Z,90.98
2023-10-29T23:39:20.952Z,91.03
2023-10-29T23:41:48.499Z,91.17
2023-10-29T23:44:16.076Z,91.29
2023-10-29T23:46:43.659Z,90.94
2023-10-29T23:49:11.238Z,91.07
2023-10-29T23:51:38.882Z,90.84
2023-10-29T23:54:07.287Z,90.93
2023-10-29T23:56:36.270Z,90.38
2023-10-29T23:59:03.887Z,90.78
